Perham, MN (56573)

10:38 PM CST on February 11, 2016 (GMT -0600)
SE Perham | | Change Station
CLOSE
Current Station
Personal Weather Station
Location: Perham, MN
Elevation: 1365 ft
Nearby Weather Stations

Elev 1365 ft 46.59 °N, 95.57 °W | Updated 8 seconds ago

Overcast
Overcast
9.7 °F
Feels Like 10 °F
N
2.9
Wind Variable Wind from NW
Gusts 4.9 mph

Today
High -- | Low -- °F
--% Chance of Precip.
Yesterday
High -- | Low -- °F
Precip. -- in
Pressure 30.21 in
Visibility 10.0 miles
Clouds Overcast 3800 ft
Windchill 10 °F
Dew Point -3 °F
Humidity 56%
Rainfall 0.00 in
Snow Depth Not available.
7:32 AM 5:40 PM
Waxing Crescent, 17% visible
METAR KADC 120435Z AUTO 31010KT 10SM OVC038 M12/M16 A3021 RMK AO2
Pressure 30.21 in
Visibility 10.0 miles
Clouds Overcast 3800 ft
Windchill 10 °F
Dew Point -3 °F
Humidity 56%
Rainfall 0.00 in
Snow Depth Not available.
7:32 AM 5:40 PM
Waxing Crescent, 17% visible
METAR KADC 120435Z AUTO 31010KT 10SM OVC038 M12/M16 A3021 RMK AO2

10-Day Weather Forecast

Almanac

Astronomy

Feb. 11, 2016 Rise Set
Actual Time
Civil Twilight
Nautical Twilight
Astronomical Twilight
Moon
Length of Visible Light
Length of Day
Tomorrow will be .
, % of the Moon is Illuminated

Today's Extremes

State Highs State Lows

Community

WunderPhotos

Upload Photos

1,892,266 photos uploaded!

WunderBlog® & News

Nearby

Air Quality

  Air Quality AQ Index Pollutant
Not available.

Snow Depth

Station Depth Elevation

Earthquake Activity

City Distance Mag. Time & Date
Minimum magnitude displayed is 2.5.

Coastal Water Temperatures

Place Temperature

Stations

Nearby Weather Stations

Station Location Temp. Windchill Dew Point Humidity Wind Precip. Elev Updated Type
                   

Watches & Warnings

There are currently no watches in effect.